• Join FlightAware (Why Join?)
  • Login
  • US Flag 
12:45AM EDT


 

Airport Tracker/Info


-or-


 

Live Flight TrackerFlight Track Log ✈ N242SR ✈ 18-Apr-2013 ✈ KBED - KDMW

Flight Track Log - Related Links

Times and Time Zones

All times are in EDT time to prevent confusion due to time zone crossing. See the N242SR flight status page for this flight to view local times or setup timezone preferences in your user account.

Time Position Orientation Groundspeed Altitude Reporting Facility
EDT Latitude Longitude Course Direction KTS MPH feet Rate Location/Type
10:43AM 42.4833 -71.2833 36° Northeast 138 159 900  Level KA90
10:44AM 42.5000 -71.2667 36° Northeast 113 130 1,500 780 Climbing KA90
10:45AM 42.5333 -71.2667 360° North 147 169 2,100 420 Climbing KA90
10:46AM 42.5333 -71.3167 270° West 173 199 2,400 600 Climbing KA90
10:47AM 42.5000 -71.3500 216° Southwest 146 168 3,400 840 Climbing KA90
10:48AM 42.4667 -71.3833 216° Southwest 136 157 4,100 660 Climbing KA90
10:49AM 42.4333 -71.4167 216° Southwest 147 169 4,800 780 Climbing KA90
10:50AM 42.4000 -71.4500 216° Southwest 123 142 5,700 660 Climbing KA90
10:51AM 42.3833 -71.4667 216° Southwest 129 148 6,200 180 Climbing KA90
10:52AM 42.3500 -71.5000 216° Southwest 157 181 6,100 -120 Descending KA90
10:53AM 42.3031 -71.5419 213° Southwest 158 182 6,000 -60 Descending Boston Center
10:54AM 42.2700 -71.5703 212° Southwest 153 176 6,000  Level Boston Center
10:55AM 42.2347 -71.6017 213° Southwest 153 176 6,000  Level Boston Center
10:56AM 42.1975 -71.6331 212° Southwest 153 176 6,100  Climbing Boston Center
10:57AM 42.1853 -71.6892 254° West 158 182 6,100  Level Boston Center
10:58AM 42.1731 -71.7425 253° West 154 177 6,100 -120 Level Boston Center
10:59AM 42.1378 -71.7711 211° Southwest 158 182 5,900 -120 Descending Boston Center
11:00AM 42.0942 -71.7825 191° South 159 183 5,900  Level Boston Center
11:01AM 42.0589 -71.7997 200° South 151 174 6,000  Climbing Boston Center
11:02AM 42.0214 -71.8142 196° South 153 176 6,000  Level Boston Center
11:03AM 41.9756 -71.8314 196° South 154 177 6,100  Climbing Boston Center
11:04AM 41.9300 -71.8514 198° South 155 178 6,000 -60 Descending Boston Center
11:05AM 41.8925 -71.8656 196° South 154 177 6,000  Level Boston Center
11:06AM 41.8592 -71.8797 198° South 152 175 6,000  Level Boston Center
11:07AM 41.8133 -71.8969 196° South 157 181 6,000  Level Boston Center
11:08AM 41.7697 -71.9139 196° South 154 177 6,000  Level Boston Center
11:09AM 41.7281 -71.9339 200° South 154 177 6,100  Climbing Boston Center
11:10AM 41.6886 -71.9481 195° South 153 176 6,000  Descending Boston Center
11:11AM 41.6469 -71.9622 194° South 154 177 6,100  Climbing Boston Center
11:12AM 41.6056 -71.9792 197° South 154 177 6,000 -60 Descending Boston Center
11:13AM 41.5533 -72.0017 198° South 154 177 6,000  Level Boston Center
11:14AM 41.5117 -72.0133 192° South 158 182 6,000  Level Boston Center
11:15AM 41.4639 -72.0219 188° South 156 180 6,000  Level Boston Center
11:16AM 41.4203 -72.0331 191° South 154 177 6,000  Level Boston Center
11:17AM 41.3786 -72.0417 189° South 156 180 6,000  Level Boston Center
11:19AM 41.2833 -72.0833 198° South 157 181 6,000  Level New York TRACON
11:20AM 41.2500 -72.1000 201° Southwest 153 176 6,100  Climbing New York TRACON
11:21AM 41.2167 -72.1333 217° Southwest 156 180 6,100  Level New York TRACON
11:22AM 41.1667 -72.1500 194° South 155 178 6,100  Level New York TRACON
11:23AM 41.1333 -72.1833 217° Southwest 154 177 6,100  Level New York TRACON
11:24AM 41.1000 -72.2000 201° Southwest 155 178 6,100  Level New York TRACON
11:25AM 41.0500 -72.2333 207° Southwest 162 186 6,100  Level New York TRACON
11:26AM 41.0167 -72.2500 201° Southwest 157 181 6,100  Level New York TRACON
11:27AM 40.9833 -72.2833 217° Southwest 158 182 6,100  Level New York TRACON
11:28AM 40.9333 -72.3000 194° South 152 175 6,100  Level New York TRACON
11:29AM 40.9000 -72.3333 217° Southwest 155 178 6,100  Level New York TRACON
11:30AM 40.8667 -72.3667 217° Southwest 151 174 6,100  Level New York TRACON
11:31AM 40.8333 -72.4167 229° Southwest 152 175 6,100  Level New York TRACON
11:32AM 40.8167 -72.4500 237° Southwest 155 178 6,100  Level New York TRACON
11:33AM 40.7833 -72.4833 217° Southwest 154 177 6,100  Level New York TRACON
11:34AM 40.7500 -72.5333 229° Southwest 151 174 6,100  Level New York TRACON
11:35AM 40.7167 -72.5667 217° Southwest 152 175 6,100  Level New York TRACON
11:36AM 40.6833 -72.6000 217° Southwest 154 177 6,100  Level New York TRACON
11:37AM 40.6500 -72.6333 217° Southwest 155 178 6,100  Level New York TRACON
11:38AM 40.6167 -72.6833 229° Southwest 156 180 6,100  Level New York TRACON
11:39AM 40.5939 -72.7117 223° Southwest 152 175 6,100  Level New York Center
11:40AM 40.5642 -72.7492 224° Southwest 157 181 6,100  Level New York Center
11:41AM 40.5278 -72.7944 223° Southwest 157 181 6,100  Level New York Center
11:42AM 40.5022 -72.8264 224° Southwest 157 181 6,100  Level New York Center
11:43AM 40.4681 -72.8689 223° Southwest 163 188 6,100  Level New York Center
11:44AM 40.4406 -72.9008 221° Southwest 158 182 6,100  Level New York Center
11:45AM 40.4044 -72.9433 222° Southwest 158 182 6,100  Level New York Center
11:46AM 40.3767 -72.9778 223° Southwest 158 182 6,100  Level New York Center
11:47AM 40.3425 -73.0203 223° Southwest 158 182 6,100  Level New York Center
11:48AM 40.3147 -73.0522 221° Southwest 158 182 6,100  Level New York Center
11:49AM 40.2806 -73.0944 223° Southwest 153 176 6,100  Level New York Center
11:50AM 40.2528 -73.1289 223° Southwest 153 176 6,100  Level New York Center
11:51AM 40.2167 -73.1683 220° Southwest 153 176 6,100  Level New York Center
11:52AM 40.1844 -73.2053 221° Southwest 153 176 6,100  Level New York Center
11:53AM 40.1544 -73.2450 225° Southwest 153 176 6,100  Level New York Center
11:54AM 40.1225 -73.2819 221° Southwest 153 176 6,100  Level New York Center
11:55AM 40.0906 -73.3186 221° Southwest 158 182 6,100  Level New York Center
11:56AM 40.0603 -73.3583 225° Southwest 158 182 6,100  Level New York Center
11:57AM 40.0283 -73.3922 219° Southwest 158 182 6,100  Level New York Center
11:58AM 39.9961 -73.4344 225° Southwest 163 188 6,100  Level New York Center
11:59AM 39.9661 -73.4683 221° Southwest 163 188 6,100  Level New York Center
12:00PM 39.9319 -73.5050 219° Southwest 163 188 6,100  Level New York Center
12:01PM 39.9019 -73.5417 223° Southwest 163 188 6,100  Level New York Center
12:02PM 39.8739 -73.5867 231° Southwest 163 188 6,100  Level New York Center
12:03PM 39.8497 -73.6342 236° Southwest 168 193 6,100  Level New York Center
12:04PM 39.8317 -73.6847 245° Southwest 163 188 6,100  Level New York Center
12:05PM 39.8117 -73.7381 244° Southwest 163 188 6,100  Level New York Center
12:06PM 39.7958 -73.7914 249° West 158 182 6,100  Level New York Center
12:07PM 39.7714 -73.8417 238° Southwest 152 175 6,100  Level New York Center
12:08PM 39.7514 -73.8894 241° Southwest 157 181 6,100 -60 Level New York Center
12:10PM 39.7228 -73.9430 235° Southwest  Level FlightAware Approximate
12:12PM 39.6664 -74.0872 241° Southwest 156 180 6,000  Level Washington Center
12:14PM 39.6659 -74.1533 269° West  Level Estimated
12:16PM 39.5814 -74.2856 269° West 156 180 6,000  Level Washington Center
12:17PM 39.5774 -74.2738 241° Southwest  Level FlightAware Approximate
12:18PM 39.5569 -74.3211 241° Southwest  Level FlightAware Approximate
12:18PM 39.5828 -74.3507 272° West  Level Estimated
12:20PM 39.4978 -74.4808 271° West 154 177 6,000  Level Washington Center
12:21PM 39.6622 -74.5337 269° West  Level Estimated
12:22PM 39.6616 -74.5880 269° West  Level Estimated
12:22PM 39.4684 -74.5336 234° Southwest  Level FlightAware Approximate
12:24PM 39.4289 -74.6861 254° West 147 169 6,000  Level Washington Center
12:25PM 39.5901 -74.7305 272° West  Level Estimated
12:26PM 39.5911 -74.7847 271° West  Level Estimated
12:26PM 39.4345 -74.7507 276° West  Level Estimated
12:28PM 39.3803 -74.8933 276° West 152 175 6,000  Level Washington Center
12:29PM 39.3761 -74.8918 254° West  Level FlightAware Approximate
12:30PM 39.3642 -74.9437 254° West  Level FlightAware Approximate
12:30PM 39.3877 -74.9566 279° West  Level Estimated
12:33PM 39.4666 -75.1276 276° West  Level Estimated
12:34PM 39.4711 -75.1815 276° West  Level Estimated
12:37PM 39.4308 -75.3315 279° West  Level Estimated
12:38PM 39.4369 -75.3851 278° West  Level Estimated
12:39PM 39.4429 -75.4387 278° West  Level Estimated
12:40PM 39.4489 -75.4923 278° West  Level Estimated
12:41PM 39.4549 -75.5459 278° West  Level Estimated
12:42PM 39.4608 -75.5995 278° West  Level Estimated
12:43PM 39.4668 -75.6531 278° West  Level Estimated
12:44PM 39.4726 -75.7061 278° West  Level Estimated
12:44PM 39.2167 -75.7000 278° West 152 175 6,000  Level Potomac TRACON
12:45PM 39.4784 -75.7590 278° West  Level Estimated
12:45PM 39.2000 -75.7500 247° West 149 171 6,000  Level Potomac TRACON
12:46PM 39.4842 -75.8120 278° West  Level Estimated
12:46PM 39.2000 -75.8000 270° West 147 169 6,000  Level Potomac TRACON
12:47PM 39.4900 -75.8650 278° West  Level Estimated
12:47PM 39.2000 -75.8667 270° West 148 170 6,000  Level Potomac TRACON
12:48PM 39.4957 -75.9180 278° West  Level Estimated
12:48PM 39.1833 -75.9167 247° West 147 169 6,000  Level Potomac TRACON
12:49PM 39.5015 -75.9710 278° West  Level Estimated
12:49PM 39.1833 -75.9667 270° West 148 170 6,000  Level Potomac TRACON
12:50PM 39.1667 -76.0167 247° West 143 165 6,000  Level Potomac TRACON
12:51PM 39.1833 -76.0667 293° West 146 168 6,000  Level Potomac TRACON
12:52PM 39.1833 -76.1167 270° West 145 167 6,000  Level Potomac TRACON
12:53PM 39.1833 -76.1833 270° West 144 166 6,000  Level Potomac TRACON
12:54PM 39.1833 -76.2333 270° West 145 167 6,000  Level Potomac TRACON
12:55PM 39.1833 -76.2833 270° West 160 184 6,000  Level Potomac TRACON
12:56PM 39.2167 -76.3167 322° Northwest 169 194 6,000  Level Potomac TRACON
12:57PM 39.2500 -76.3667 311° West 170 196 6,000  Level Potomac TRACON
12:58PM 39.2833 -76.4000 322° Northwest 169 194 6,000  Level Potomac TRACON
12:59PM 39.3333 -76.4500 322° Northwest 172 198 6,000  Level Potomac TRACON
01:00PM 39.3667 -76.4833 322° Northwest 171 197 6,000  Level Potomac TRACON
01:01PM 39.4000 -76.5333 311° West 173 199 6,000  Level Potomac TRACON
01:02PM 39.4333 -76.5667 322° Northwest 175 201 6,000  Level Potomac TRACON
01:03PM 39.4667 -76.6167 311° West 177 204 6,000 -60 Level Potomac TRACON
01:04PM 39.5000 -76.6667 311° West 177 204 5,900 -360 Descending Potomac TRACON
01:05PM 39.5333 -76.7000 322° Northwest 188 216 5,300 -600 Descending Potomac TRACON
01:06PM 39.5833 -76.7500 322° Northwest 188 216 4,700 -600 Descending Potomac TRACON
01:07PM 39.6167 -76.8000 311° West 190 219 4,100 -360 Descending Potomac TRACON
01:08PM 39.6500 -76.8500 311° West 179 206 4,000 -60 Descending Potomac TRACON
01:09PM 39.6833 -76.8833 322° Northwest 169 194 4,000 -180 Level Potomac TRACON
01:10PM 39.7167 -76.9333 311° West 175 201 3,700 -420 Descending Potomac TRACON
01:11PM 39.7500 -76.9667 322° Northwest 179 206 3,200 -540 Descending Potomac TRACON